Time;durP1;ratioP1;P1;durP2;ratioP2;P2;SDS_P1;SDS_P2;PMS_P1;PMS_P2;Temp;Humidity;BMP_temperature;BMP_pressure;BME280_temperature;BME280_humidity;BME280_pressure;Samples;Min_cycle;Max_cycle;Signal;HPM_P1;HPM_P2
2023/06/17 00:02:15;;;;;;;5.32;3.60;;;14.90;99.90;;;;;;5053485;28;20397;-66
2023/06/17 00:04:41;;;;;;;6.22;3.92;;;14.90;99.90;;;;;;5035504;28;20081;-67
2023/06/17 00:07:13;;;;;;;5.60;3.17;;;15.10;99.90;;;;;;5053344;28;20116;-66
2023/06/17 00:09:41;;;;;;;7.82;3.70;;;15.00;99.90;;;;;;5053501;28;20064;-67
2023/06/17 00:12:07;;;;;;;5.53;4.15;;;15.00;99.90;;;;;;5035688;28;20041;-67
2023/06/17 00:14:33;;;;;;;5.68;3.60;;;15.10;1.00;;;;;;5053190;28;20036;-66
2023/06/17 00:17:00;;;;;;;5.50;3.92;;;15.20;98.30;;;;;;5051914;28;20044;-67
2023/06/17 00:19:28;;;;;;;5.68;3.45;;;15.20;1.00;;;;;;5035264;28;20120;-66
2023/06/17 00:21:54;;;;;;;5.32;3.58;;;15.10;95.00;;;;;;5051728;28;20045;-66
2023/06/17 00:24:20;;;;;;;7.95;4.00;;;15.10;99.90;;;;;;5051736;28;20053;-67
2023/06/17 00:26:46;;;;;;;7.68;4.60;;;15.20;1.00;;;;;;5053237;28;20048;-67
2023/06/17 00:29:12;;;;;;;5.47;3.65;;;15.20;99.90;;;;;;5051556;28;20351;-66
2023/06/17 00:31:38;;;;;;;6.05;3.90;;;15.20;1.00;;;;;;5051819;28;20048;-66
2023/06/17 00:34:04;;;;;;;5.18;3.53;;;15.30;93.90;;;;;;5053199;28;20044;-67
2023/06/17 00:36:30;;;;;;;6.22;4.07;;;15.20;99.90;;;;;;5051575;28;20041;-67
2023/06/17 00:38:56;;;;;;;9.27;4.38;;;15.30;99.90;;;;;;5053193;28;20412;-68
2023/06/17 00:41:22;;;;;;;8.45;4.93;;;15.30;99.90;;;;;;5053031;28;20047;-66
2023/06/17 00:43:48;;;;;;;7.30;4.93;;;15.30;99.90;;;;;;5051886;28;20033;-67
2023/06/17 00:46:38;;;;;;;9.90;4.72;;;15.40;99.90;;;;;;5051745;28;20414;-66
2023/06/17 00:49:05;;;;;;;7.20;4.03;;;15.40;1.00;;;;;;5041450;28;20157;-66
2023/06/17 00:51:32;;;;;;;7.80;4.30;;;15.30;99.90;;;;;;5052734;28;20121;-66
2023/06/17 00:54:01;;;;;;;7.07;3.95;;;15.40;99.90;;;;;;5051680;28;20389;-67
2023/06/17 00:56:27;;;;;;;6.65;4.15;;;15.50;1.00;;;;;;5052903;28;20130;-66
2023/06/17 00:58:54;;;;;;;9.32;4.97;;;16.10;1.00;;;;;;5052611;28;20049;-66
2023/06/17 01:01:20;;;;;;;10.80;4.97;;;15.40;99.90;;;;;;5051637;28;20507;-66
2023/06/17 01:03:46;;;;;;;8.00;5.28;;;16.20;99.90;;;;;;5052520;28;20061;-66
2023/06/17 01:06:24;;;;;;;11.48;5.60;;;15.30;1.00;;;;;;5052799;28;20586;-66
2023/06/17 01:09:11;;;;;;;6.25;4.68;;;15.90;99.90;;;;;;5052727;28;20087;-63
2023/06/17 01:11:41;;;;;;;11.40;5.65;;;15.40;95.80;;;;;;5051116;28;20048;-63
2023/06/17 01:14:10;;;;;;;7.67;4.83;;;15.40;71.90;;;;;;5051522;28;20149;-63
2023/06/17 01:16:42;;;;;;;11.35;5.35;;;15.40;92.80;;;;;;5052739;28;20271;-63
2023/06/17 01:19:18;;;;;;;7.55;5.10;;;15.40;99.90;;;;;;5052759;28;20052;-63
2023/06/17 01:21:51;;;;;;;7.72;4.88;;;15.40;99.90;;;;;;5052668;28;20033;-63
2023/06/17 01:24:30;;;;;;;8.63;5.28;;;15.40;99.90;;;;;;5051505;28;20120;-63
2023/06/17 01:26:59;;;;;;;10.75;5.82;;;15.50;50.80;;;;;;5034499;28;20037;-63
2023/06/17 01:29:30;;;;;;;8.13;5.25;;;15.40;5.70;;;;;;5052509;28;20386;-63
2023/06/17 01:31:57;;;;;;;12.85;6.28;;;15.40;1.00;;;;;;5052606;28;20045;-63
2023/06/17 01:34:34;;;;;;;8.27;6.00;;;15.50;1.00;;;;;;5052512;28;20144;-63
2023/06/17 01:37:07;;;;;;;9.32;5.93;;;15.50;99.90;;;;;;5052240;28;20037;-63
2023/06/17 01:39:36;;;;;;;8.85;5.28;;;15.50;99.90;;;;;;5052180;28;20099;-63
2023/06/17 01:42:04;;;;;;;7.53;5.75;;;15.40;53.30;;;;;;5054057;28;20405;-63
2023/06/17 01:44:31;;;;;;;8.48;5.00;;;15.40;1.00;;;;;;5038434;28;20389;-63
2023/06/17 01:46:57;;;;;;;10.23;6.18;;;15.40;99.90;;;;;;5054731;28;20049;-63
2023/06/17 01:49:22;;;;;;;8.68;5.60;;;15.40;99.90;;;;;;5056187;28;20082;-63
2023/06/17 01:51:48;;;;;;;9.52;6.10;;;15.30;60.40;;;;;;5056144;28;20451;-63
2023/06/17 01:54:14;;;;;;;11.52;6.18;;;15.90;1.00;;;;;;5054901;28;20125;-63
2023/06/17 01:56:42;;;;;;;9.23;5.25;;;15.30;99.90;;;;;;5056122;28;20119;-63
2023/06/17 01:59:07;;;;;;;8.27;5.47;;;15.30;99.90;;;;;;5054760;28;20048;-63
2023/06/17 02:01:33;;;;;;;10.52;6.60;;;15.40;99.90;;;;;;5038127;28;20440;-66
2023/06/17 02:03:59;;;;;;;8.43;5.55;;;15.40;99.90;;;;;;5070921;22;20053;-63
2023/06/17 02:06:24;;;;;;;7.32;5.10;;;15.40;99.90;;;;;;5057945;28;20056;-62
2023/06/17 02:08:50;;;;;;;8.27;5.95;;;15.30;99.90;;;;;;5057794;28;20116;-62
2023/06/17 02:11:16;;;;;;;10.18;6.13;;;15.40;99.90;;;;;;5075829;28;20036;-62
2023/06/17 02:13:41;;;;;;;8.60;5.97;;;15.40;1.00;;;;;;5075506;28;20041;-62
2023/06/17 02:16:07;;;;;;;7.15;5.75;;;15.40;99.90;;;;;;5057708;28;20048;-60
2023/06/17 02:18:33;;;;;;;9.05;5.95;;;16.20;99.90;;;;;;5075720;28;20120;-60
2023/06/17 02:21:01;;;;;;;8.30;5.78;;;15.40;99.90;;;;;;5075600;28;20485;-60
2023/06/17 02:23:27;;;;;;;9.32;6.30;;;15.40;1.00;;;;;;5075301;28;20040;-60
2023/06/17 02:25:54;;;;;;;6.75;5.38;;;15.40;1.00;;;;;;5075594;28;20040;-60
2023/06/17 02:28:20;;;;;;;7.95;6.47;;;15.30;1.00;;;;;;5075544;28;20502;-60
2023/06/17 02:30:46;;;;;;;11.15;6.20;;;16.00;99.90;;;;;;5075066;28;20041;-60
2023/06/17 02:33:12;;;;;;;13.82;6.38;;;15.40;99.90;;;;;;5057496;28;20044;-60
2023/06/17 02:35:38;;;;;;;11.15;7.00;;;15.40;99.90;;;;;;5075374;28;20090;-60
2023/06/17 02:38:03;;;;;;;8.52;6.22;;;15.30;99.90;;;;;;5075343;28;20032;-60
2023/06/17 02:40:29;;;;;;;8.70;6.18;;;15.60;99.90;;;;;;5075318;28;20475;-60
2023/06/17 02:42:55;;;;;;;12.85;7.80;;;15.30;99.90;;;;;;5073798;28;20028;-60
2023/06/17 02:45:20;;;;;;;14.52;6.78;;;15.30;1.00;;;;;;5075281;28;20062;-60
2023/06/17 02:47:46;;;;;;;10.00;7.03;;;15.30;99.90;;;;;;5056808;28;20040;-60
2023/06/17 02:50:11;;;;;;;12.32;6.70;;;15.30;1.00;;;;;;5075079;28;20047;-60
2023/06/17 02:52:37;;;;;;;11.20;6.38;;;15.30;1.00;;;;;;5074845;28;20067;-60
2023/06/17 02:55:03;;;;;;;11.80;6.28;;;15.30;1.00;;;;;;5075038;28;20033;-60
2023/06/17 02:57:29;;;;;;;10.98;6.28;;;15.30;99.90;;;;;;5074581;28;20045;-60
2023/06/17 02:59:54;;;;;;;13.98;7.30;;;15.30;1.00;;;;;;5056662;28;20045;-60
2023/06/17 03:02:20;;;;;;;13.77;7.43;;;15.30;1.00;;;;;;5074921;28;20048;-60
2023/06/17 03:04:46;;;;;;;10.13;6.55;;;15.20;1.00;;;;;;5074501;28;20410;-60
2023/06/17 03:07:12;;;;;;;9.75;6.63;;;15.20;1.00;;;;;;5074787;28;20080;-60
2023/06/17 03:09:37;;;;;;;10.68;6.00;;;15.30;1.00;;;;;;5074614;28;20036;-60
2023/06/17 03:12:05;;;;;;;10.57;6.95;;;15.40;99.90;;;;;;5074676;28;20395;-60
2023/06/17 03:14:30;;;;;;;12.32;7.13;;;15.30;1.00;;;;;;5074623;28;20456;-60
2023/06/17 03:16:57;;;;;;;11.02;6.85;;;15.30;1.00;;;;;;5074599;28;20122;-61
2023/06/17 03:19:24;;;;;;;11.90;6.88;;;16.00;1.00;;;;;;5074222;28;20044;-60
2023/06/17 03:21:50;;;;;;;16.00;7.68;;;15.30;1.00;;;;;;5074511;28;20480;-60
2023/06/17 03:24:16;;;;;;;12.43;6.55;;;15.30;1.00;;;;;;5074366;28;20406;-60
2023/06/17 03:26:41;;;;;;;12.20;7.30;;;15.30;1.00;;;;;;5074363;28;20123;-60
2023/06/17 03:29:07;;;;;;;12.85;6.85;;;15.30;1.00;;;;;;5056047;28;20043;-61
2023/06/17 03:31:33;;;;;;;11.73;7.03;;;15.30;1.00;;;;;;5074283;28;20048;-60
2023/06/17 03:33:59;;;;;;;8.82;6.03;;;15.40;1.00;;;;;;5074218;28;20039;-60
2023/06/17 03:36:24;;;;;;;13.23;7.60;;;15.30;1.00;;;;;;5073918;28;20388;-60
2023/06/17 03:38:50;;;;;;;10.98;7.20;;;15.60;1.00;;;;;;5074039;28;20122;-60
2023/06/17 03:41:16;;;;;;;12.70;7.03;;;15.20;1.00;;;;;;5056163;28;20098;-60
2023/06/17 03:43:42;;;;;;;11.35;7.35;;;15.30;1.00;;;;;;5073683;28;20085;-60
2023/06/17 03:46:07;;;;;;;14.23;7.25;;;15.30;1.00;;;;;;5074023;28;20102;-60
2023/06/17 03:48:33;;;;;;;12.48;6.95;;;15.40;1.00;;;;;;5073890;28;20514;-60
2023/06/17 03:51:00;;;;;;;16.08;6.63;;;15.30;1.00;;;;;;5073907;28;20041;-61
2023/06/17 03:53:26;;;;;;;11.75;6.72;;;15.30;1.00;;;;;;5055877;28;20076;-60
2023/06/17 03:55:52;;;;;;;9.57;6.50;;;15.30;1.00;;;;;;5073808;28;20490;-60
2023/06/17 03:58:18;;;;;;;8.90;6.20;;;15.40;1.00;;;;;;5072339;28;20090;-60
2023/06/17 04:00:43;;;;;;;13.63;7.15;;;15.60;1.00;;;;;;5073727;28;20501;-60
2023/06/17 04:03:11;;;;;;;12.27;7.03;;;15.80;1.00;;;;;;5073783;28;20046;-60
2023/06/17 04:05:37;;;;;;;10.77;6.35;;;16.20;1.00;;;;;;5072680;28;20060;-60
2023/06/17 04:08:04;;;;;;;14.10;7.05;;;15.40;1.00;;;;;;5055652;28;20051;-60
2023/06/17 04:10:30;;;;;;;10.75;6.38;;;15.40;1.00;;;;;;5073164;28;20110;-60
2023/06/17 04:12:56;;;;;;;11.40;7.15;;;15.40;1.00;;;;;;5073254;28;20510;-60
2023/06/17 04:15:21;;;;;;;11.52;6.53;;;15.40;1.00;;;;;;5055334;28;20076;-60
2023/06/17 04:17:47;;;;;;;9.43;6.38;;;15.40;1.00;;;;;;5073099;28;20036;-60
2023/06/17 04:20:12;;;;;;;12.05;7.13;;;15.40;99.90;;;;;;5055252;28;20490;-60
2023/06/17 04:22:39;;;;;;;10.95;7.68;;;15.30;99.90;;;;;;5055491;28;20395;-60
2023/06/17 04:25:07;;;;;;;10.57;7.10;;;15.40;99.90;;;;;;5073054;28;20040;-60
2023/06/17 04:27:32;;;;;;;14.32;6.70;;;15.30;99.90;;;;;;5072958;28;20036;-60
2023/06/17 04:29:58;;;;;;;11.55;7.07;;;15.30;1.00;;;;;;5071594;28;20044;-60
2023/06/17 04:32:26;;;;;;;10.68;6.25;;;15.30;1.00;;;;;;5055041;28;20045;-60
2023/06/17 04:34:52;;;;;;;10.25;6.57;;;15.40;1.00;;;;;;5072906;28;20485;-60
2023/06/17 04:37:18;;;;;;;9.15;6.47;;;15.40;1.00;;;;;;5073138;28;20111;-60
2023/06/17 04:39:44;;;;;;;10.65;7.10;;;15.40;1.00;;;;;;5072841;28;20130;-60
2023/06/17 04:42:10;;;;;;;12.55;8.07;;;15.40;1.00;;;;;;5072815;28;20149;-60
2023/06/17 04:44:37;;;;;;;10.50;7.45;;;15.30;1.00;;;;;;5073026;28;20043;-60
2023/06/17 04:47:04;;;;;;;11.52;6.85;;;15.80;99.90;;;;;;5072803;28;20052;-60
2023/06/17 04:49:31;;;;;;;8.48;6.32;;;15.40;99.90;;;;;;5072665;28;20510;-60
2023/06/17 04:51:56;;;;;;;11.35;7.35;;;15.40;99.90;;;;;;5073034;28;20399;-62
2023/06/17 04:54:24;;;;;;;15.30;8.15;;;17.70;99.90;;;;;;5072954;28;20102;-62
2023/06/17 04:56:51;;;;;;;10.63;7.60;;;15.40;99.90;;;;;;5072935;28;20040;-62
2023/06/17 04:59:19;;;;;;;12.98;7.55;;;15.40;99.90;;;;;;5071722;28;20040;-62
2023/06/17 05:01:45;;;;;;;12.70;7.93;;;15.40;1.00;;;;;;5054650;28;20049;-62
2023/06/17 05:04:10;;;;;;;14.18;7.28;;;15.40;1.00;;;;;;5038168;28;20047;-62
2023/06/17 05:06:36;;;;;;;11.25;7.07;;;15.40;1.00;;;;;;5072504;28;20128;-62
2023/06/17 05:09:02;;;;;;;10.98;7.18;;;15.50;1.00;;;;;;5072363;28;20039;-62
2023/06/17 05:11:28;;;;;;;12.70;7.07;;;15.40;1.00;;;;;;5054729;28;20105;-62
2023/06/17 05:13:53;;;;;;;13.85;7.07;;;15.50;1.00;;;;;;5072420;28;20048;-62
2023/06/17 05:16:19;;;;;;;10.32;7.28;;;15.50;1.00;;;;;;5072936;28;20072;-62
2023/06/17 05:18:44;;;;;;;10.38;6.70;;;15.60;1.00;;;;;;5075203;28;20048;-62
2023/06/17 05:21:10;;;;;;;11.63;7.60;;;15.50;1.00;;;;;;5076776;28;20480;-62
2023/06/17 05:23:36;;;;;;;11.23;6.82;;;15.60;1.00;;;;;;5076681;28;20476;-62
2023/06/17 05:26:01;;;;;;;14.23;7.00;;;15.50;1.00;;;;;;5076505;28;20036;-62
2023/06/17 05:28:27;;;;;;;15.93;6.65;;;15.60;1.00;;;;;;5076313;28;20120;-62
2023/06/17 05:30:53;;;;;;;13.05;7.90;;;15.60;99.90;;;;;;5076248;28;20032;-62
2023/06/17 05:33:18;;;;;;;11.63;7.13;;;15.60;1.00;;;;;;5076326;28;20037;-62
2023/06/17 05:35:44;;;;;;;12.88;7.25;;;15.60;1.00;;;;;;5074876;28;20094;-62
2023/06/17 05:38:09;;;;;;;11.73;6.53;;;15.60;99.90;;;;;;5076104;28;20039;-61
2023/06/17 05:40:35;;;;;;;11.38;6.85;;;15.60;99.90;;;;;;5076283;28;20060;-61
2023/06/17 05:43:01;;;;;;;11.50;7.10;;;15.60;99.90;;;;;;5076338;28;20040;-61
2023/06/17 05:45:26;;;;;;;14.02;7.47;;;15.60;99.90;;;;;;5076298;28;20396;-62
2023/06/17 05:47:52;;;;;;;15.57;7.00;;;15.50;99.90;;;;;;5074719;28;20048;-62
2023/06/17 05:50:18;;;;;;;10.02;6.75;;;15.60;99.90;;;;;;5076250;28;20044;-62
2023/06/17 05:52:45;;;;;;;13.88;7.35;;;16.30;99.90;;;;;;5076174;28;20503;-61
2023/06/17 05:55:11;;;;;;;11.40;6.65;;;16.00;99.90;;;;;;5058633;28;20167;-61
2023/06/17 05:57:36;;;;;;;10.48;7.20;;;15.60;99.90;;;;;;5076051;28;20508;-61
2023/06/17 06:00:03;;;;;;;8.10;6.38;;;15.70;1.00;;;;;;5076045;28;20036;-61
2023/06/17 06:02:29;;;;;;;9.98;7.18;;;15.70;99.90;;;;;;5075959;28;20422;-62
2023/06/17 06:04:54;;;;;;;9.43;5.93;;;15.70;1.00;;;;;;5075465;28;20058;-61
2023/06/17 06:07:20;;;;;;;11.77;6.78;;;15.80;99.90;;;;;;5058010;28;20044;-62
2023/06/17 06:09:46;;;;;;;13.23;6.07;;;15.80;99.90;;;;;;5075432;28;20348;-61
2023/06/17 06:12:12;;;;;;;9.48;6.60;;;15.80;99.90;;;;;;5057525;28;20072;-62
2023/06/17 06:14:38;;;;;;;11.00;6.78;;;15.80;99.90;;;;;;5057561;28;20083;-61
2023/06/17 06:17:03;;;;;;;9.77;6.65;;;15.80;99.90;;;;;;5057492;28;20106;-61
2023/06/17 06:19:29;;;;;;;10.95;6.30;;;15.80;99.90;;;;;;5074459;28;20076;-62
2023/06/17 06:21:55;;;;;;;11.98;6.50;;;15.80;99.90;;;;;;5074117;28;20471;-61
2023/06/17 06:24:20;;;;;;;11.18;7.03;;;15.90;99.90;;;;;;5075624;28;20064;-62
2023/06/17 06:26:46;;;;;;;12.15;7.03;;;15.90;99.90;;;;;;5075322;28;20097;-62
2023/06/17 06:29:13;;;;;;;8.18;5.97;;;15.90;99.90;;;;;;5073510;28;20119;-61
2023/06/17 06:31:42;;;;;;;10.38;6.30;;;16.00;99.90;;;;;;5075261;28;20040;-61
2023/06/17 06:34:08;;;;;;;7.57;5.60;;;16.00;99.90;;;;;;5056961;28;20051;-62
2023/06/17 06:36:34;;;;;;;11.55;6.57;;;16.00;99.90;;;;;;5024112;28;20095;-62
2023/06/17 06:38:59;;;;;;;9.50;6.63;;;16.10;1.00;;;;;;5075141;28;20068;-63
2023/06/17 06:41:25;;;;;;;9.25;6.18;;;16.10;1.00;;;;;;5074852;28;20380;-62
2023/06/17 06:43:51;;;;;;;9.85;6.63;;;16.10;1.00;;;;;;5074890;28;20041;-62
2023/06/17 06:46:16;;;;;;;9.23;6.80;;;16.20;16.30;;;;;;5075093;28;20037;-61
2023/06/17 06:48:42;;;;;;;10.38;6.93;;;16.10;85.80;;;;;;5074630;28;20040;-61
2023/06/17 06:51:07;;;;;;;13.05;6.00;;;16.10;1.00;;;;;;5074933;28;20471;-62
2023/06/17 06:53:33;;;;;;;9.20;5.78;;;16.20;99.90;;;;;;5074983;28;20111;-62
2023/06/17 06:55:59;;;;;;;9.45;6.18;;;16.20;99.90;;;;;;5074718;28;20032;-62
2023/06/17 06:58:25;;;;;;;16.48;6.28;;;16.20;99.90;;;;;;5056670;28;20140;-62
2023/06/17 07:00:50;;;;;;;8.45;5.03;;;16.30;1.00;;;;;;5056719;28;20119;-62
2023/06/17 07:03:16;;;;;;;8.25;5.53;;;16.30;91.70;;;;;;5074868;28;20041;-62
2023/06/17 07:05:41;;;;;;;12.63;6.20;;;16.60;99.90;;;;;;5074465;28;20488;-61
2023/06/17 07:08:07;;;;;;;7.88;5.63;;;16.50;99.90;;;;;;5056559;28;20487;-62
2023/06/17 07:10:33;;;;;;;11.40;7.00;;;16.60;99.90;;;;;;5074570;28;20166;-61
2023/06/17 07:12:59;;;;;;;7.55;5.57;;;16.70;99.90;;;;;;5074648;28;20041;-61
2023/06/17 07:15:24;;;;;;;14.88;6.00;;;16.80;1.00;;;;;;5056376;28;20055;-61
2023/06/17 07:17:50;;;;;;;9.50;5.72;;;16.80;99.90;;;;;;5073393;28;20040;-61
2023/06/17 07:20:15;;;;;;;11.25;6.18;;;16.80;99.90;;;;;;5074562;28;20044;-61
2023/06/17 07:22:42;;;;;;;8.80;5.80;;;16.90;99.90;;;;;;5074385;28;20480;-61
2023/06/17 07:25:09;;;;;;;9.07;6.13;;;17.00;1.00;;;;;;5074163;28;20080;-62
2023/06/17 07:27:35;;;;;;;6.88;5.35;;;16.90;1.00;;;;;;5055859;28;20032;-62
2023/06/17 07:30:00;;;;;;;9.88;5.60;;;17.20;99.90;;;;;;5073690;28;20040;-62
2023/06/17 07:32:26;;;;;;;7.63;5.13;;;16.80;99.90;;;;;;5074015;28;20498;-61
2023/06/17 07:34:51;;;;;;;9.10;5.47;;;17.40;76.20;;;;;;5072455;28;20048;-61
2023/06/17 07:37:17;;;;;;;8.32;4.75;;;17.10;1.00;;;;;;5073901;28;20464;-62
2023/06/17 07:39:46;;;;;;;8.93;5.03;;;17.20;1.00;;;;;;5072983;28;20048;-61
2023/06/17 07:42:12;;;;;;;9.27;5.70;;;17.30;31.40;;;;;;5073937;28;20052;-61
2023/06/17 07:44:37;;;;;;;6.43;5.20;;;18.00;99.90;;;;;;5055558;28;20044;-62
2023/06/17 07:47:03;;;;;;;10.68;5.88;;;17.60;99.90;;;;;;5073368;28;20040;-62
2023/06/17 07:49:29;;;;;;;10.13;5.38;;;17.80;99.90;;;;;;5072024;28;20090;-62
2023/06/17 07:51:55;;;;;;;6.68;4.53;;;18.50;1.00;;;;;;5073636;28;20051;-62
2023/06/17 07:54:20;;;;;;;7.00;4.63;;;18.50;99.90;;;;;;5055244;28;20428;-62
2023/06/17 07:56:46;;;;;;;8.73;4.97;;;18.70;99.90;;;;;;5073218;28;20419;-61
2023/06/17 07:59:12;;;;;;;7.28;4.85;;;18.50;99.90;;;;;;5073758;28;20052;-61
2023/06/17 08:01:39;;;;;;;7.53;5.38;;;18.40;99.90;;;;;;5073543;28;20418;-62
2023/06/17 08:04:04;;;;;;;7.85;5.40;;;18.40;99.90;;;;;;5073148;28;20063;-61
2023/06/17 08:06:30;;;;;;;9.32;5.22;;;18.30;99.90;;;;;;5073306;28;20404;-62
2023/06/17 08:08:56;;;;;;;10.85;5.70;;;18.70;99.90;;;;;;5055725;28;20072;-69
2023/06/17 08:11:21;;;;;;;10.30;5.30;;;18.50;99.90;;;;;;5055634;28;20040;-69
2023/06/17 08:13:47;;;;;;;7.90;4.60;;;18.70;99.90;;;;;;5073445;28;20059;-71
2023/06/17 08:16:12;;;;;;;7.07;4.88;;;18.70;99.90;;;;;;5073516;28;20042;-72
2023/06/17 08:18:38;;;;;;;8.15;5.57;;;18.90;99.90;;;;;;5073161;28;20472;-71
2023/06/17 08:21:03;;;;;;;8.73;5.15;;;19.10;99.90;;;;;;5073439;28;20033;-70
2023/06/17 08:23:29;;;;;;;10.90;5.47;;;18.80;99.90;;;;;;5055465;28;20054;-71
2023/06/17 08:25:56;;;;;;;10.13;5.05;;;18.50;99.90;;;;;;5073273;28;20044;-71
2023/06/17 08:28:22;;;;;;;11.35;5.53;;;19.00;99.90;;;;;;5073319;28;20040;-71
2023/06/17 08:30:49;;;;;;;8.25;5.53;;;18.80;91.30;;;;;;5073223;28;20391;-71
2023/06/17 08:33:15;;;;;;;8.73;4.95;;;19.20;98.50;;;;;;5073223;28;20051;-71
2023/06/17 08:35:41;;;;;;;8.90;5.68;;;;;;;;;;5073133;28;20036;-71
2023/06/17 08:38:06;;;;;;;6.30;4.22;;;19.60;47.20;;;;;;5073152;28;20028;-70
2023/06/17 08:40:34;;;;;;;7.40;4.97;;;19.80;55.20;;;;;;5073172;28;20039;-70
2023/06/17 08:43:02;;;;;;;9.70;5.15;;;20.00;51.40;;;;;;5073123;28;20044;-70
2023/06/17 08:45:28;;;;;;;8.32;5.53;;;20.00;42.70;;;;;;5072733;28;20048;-70
2023/06/17 08:47:54;;;;;;;10.27;4.70;;;20.10;27.20;;;;;;5073058;28;20094;-70
2023/06/17 08:50:20;;;;;;;9.98;5.13;;;20.30;28.20;;;;;;5072804;28;20097;-71
2023/06/17 08:52:47;;;;;;;8.55;4.93;;;20.20;24.20;;;;;;5072649;28;20041;-70
2023/06/17 08:55:13;;;;;;;7.47;4.97;;;20.30;19.80;;;;;;5072878;28;20044;-71
2023/06/17 08:57:40;;;;;;;9.55;5.68;;;20.30;18.50;;;;;;5072909;28;20024;-71
2023/06/17 09:00:10;;;;;;;6.72;4.47;;;20.30;15.80;;;;;;5072968;28;20043;-71
2023/06/17 09:02:37;;;;;;;7.53;5.65;;;20.30;15.30;;;;;;5072814;28;20111;-71
2023/06/17 09:05:04;;;;;;;7.93;4.72;;;20.50;16.10;;;;;;5072489;28;20056;-71
2023/06/17 09:07:30;;;;;;;7.43;5.28;;;20.70;16.00;;;;;;5072923;28;20045;-70
2023/06/17 09:10:07;;;;;;;7.63;5.03;;;20.80;15.10;;;;;;5072792;28;20094;-71
2023/06/17 09:12:37;;;;;;;9.00;4.38;;;20.90;13.00;;;;;;5072856;28;20044;-70
2023/06/17 09:15:07;;;;;;;6.15;4.57;;;21.20;18.40;;;;;;5072861;28;20071;-70
2023/06/17 09:17:36;;;;;;;14.82;4.65;;;21.20;8.40;;;;;;5072783;28;20049;-71
2023/06/17 09:20:31;;;;;;;8.27;4.18;;;21.20;6.40;;;;;;5072725;28;20036;-68
2023/06/17 09:22:57;;;;;;;8.65;4.65;;;21.40;3.80;;;;;;5053129;28;20048;-71
2023/06/17 09:25:23;;;;;;;7.38;4.90;;;21.90;4.40;;;;;;5072662;28;20043;-71
2023/06/17 09:27:53;;;;;;;8.80;4.82;;;21.40;1.60;;;;;;5072647;28;20419;-72
2023/06/17 09:30:22;;;;;;;8.60;4.80;;;21.40;1.00;;;;;;5072628;28;20041;-72
2023/06/17 09:32:51;;;;;;;7.07;4.28;;;21.50;1.10;;;;;;5072299;28;20052;-71
2023/06/17 09:35:17;;;;;;;10.25;5.20;;;21.70;1.10;;;;;;5072517;28;20097;-69
2023/06/17 09:37:53;;;;;;;9.18;5.10;;;21.70;1.00;;;;;;5072401;28;20033;-69
2023/06/17 09:40:19;;;;;;;7.43;4.63;;;21.80;1.00;;;;;;5072419;28;20127;-70
2023/06/17 09:42:46;;;;;;;6.32;4.30;;;21.80;1.40;;;;;;5072375;28;20094;-70
2023/06/17 09:45:19;;;;;;;7.40;4.25;;;21.70;1.00;;;;;;5072086;28;20074;-70
2023/06/17 09:47:53;;;;;;;5.72;3.80;;;21.80;1.00;;;;;;5072318;28;20086;-72
2023/06/17 09:50:20;;;;;;;7.20;4.70;;;21.80;1.00;;;;;;5071981;28;20044;-72
2023/06/17 09:52:52;;;;;;;11.25;4.80;;;21.80;1.00;;;;;;5072054;28;20120;-72
2023/06/17 09:55:20;;;;;;;7.93;4.32;;;21.80;1.00;;;;;;5072429;28;20044;-72
2023/06/17 09:57:47;;;;;;;8.20;4.07;;;21.90;1.00;;;;;;5072363;28;20051;-73
2023/06/17 10:00:14;;;;;;;9.68;4.88;;;22.10;1.00;;;;;;5072577;28;20131;-71
2023/06/17 10:02:40;;;;;;;6.80;4.47;;;22.20;1.00;;;;;;5073197;28;20052;-71
2023/06/17 10:05:15;;;;;;;7.60;4.72;;;22.20;1.00;;;;;;5075412;28;20048;-71
2023/06/17 10:07:43;;;;;;;8.93;4.63;;;22.20;1.00;;;;;;5075703;28;20057;-70
2023/06/17 10:10:10;;;;;;;6.93;4.10;;;22.20;1.00;;;;;;5075802;28;20032;-71
2023/06/17 10:12:38;;;;;;;9.07;4.65;;;22.30;1.00;;;;;;5075819;28;20388;-72
2023/06/17 10:15:05;;;;;;;5.93;3.95;;;22.40;1.00;;;;;;5075534;28;20572;-73
2023/06/17 10:17:32;;;;;;;8.18;4.40;;;22.50;1.00;;;;;;5075680;28;20032;-72
2023/06/17 10:20:00;;;;;;;7.78;4.55;;;22.60;1.00;;;;;;5075407;28;20162;-71
2023/06/17 10:22:26;;;;;;;6.82;4.10;;;22.70;1.00;;;;;;5075681;28;20054;-71
2023/06/17 10:24:52;;;;;;;5.60;4.38;;;22.70;1.00;;;;;;5075629;28;20472;-71
2023/06/17 10:27:20;;;;;;;6.13;4.15;;;22.60;1.00;;;;;;5057681;28;20044;-71
2023/06/17 10:29:48;;;;;;;7.10;4.55;;;22.40;1.00;;;;;;5075415;28;20119;-68
2023/06/17 10:32:16;;;;;;;7.10;3.83;;;22.50;1.00;;;;;;5075905;28;20486;-70
2023/06/17 10:35:05;;;;;;;5.80;3.70;;;22.60;1.00;;;;;;5075374;28;20655;-70
2023/06/17 10:37:31;;;;;;;4.60;3.72;;;22.70;1.00;;;;;;5075095;28;20040;-69
2023/06/17 10:40:27;;;;;;;5.82;3.85;;;22.70;1.00;;;;;;5075538;28;20500;-69
2023/06/17 10:42:55;;;;;;;5.30;3.63;;;22.80;1.00;;;;;;5061948;28;20085;-69
2023/06/17 10:45:21;;;;;;;7.68;4.68;;;22.80;1.00;;;;;;5075283;28;20036;-68
2023/06/17 10:47:46;;;;;;;5.15;4.13;;;22.80;1.00;;;;;;5074914;28;20450;-72
2023/06/17 10:50:12;;;;;;;6.18;3.97;;;23.00;1.00;;;;;;5074698;28;20075;-68
2023/06/17 10:52:41;;;;;;;7.88;3.90;;;23.10;1.00;;;;;;5074934;28;20055;-70
2023/06/17 10:55:12;;;;;;;5.95;4.03;;;23.30;1.00;;;;;;5074965;28;20036;-71
2023/06/17 10:57:38;;;;;;;6.75;3.83;;;23.30;1.00;;;;;;5074961;28;20036;-69
2023/06/17 11:00:09;;;;;;;4.50;2.90;;;23.30;1.00;;;;;;5073246;28;20045;-68
2023/06/17 11:02:37;;;;;;;7.63;3.63;;;23.30;1.00;;;;;;5074756;28;20387;-67
2023/06/17 11:05:04;;;;;;;6.68;3.75;;;23.30;1.00;;;;;;5073081;28;20111;-69
2023/06/17 11:07:29;;;;;;;5.95;3.53;;;23.50;1.00;;;;;;5074653;28;20058;-69
2023/06/17 11:09:55;;;;;;;10.52;4.20;;;23.40;1.00;;;;;;5074312;28;20040;-68
2023/06/17 11:12:21;;;;;;;7.00;3.55;;;23.40;1.00;;;;;;5074632;28;20500;-68
2023/06/17 11:14:47;;;;;;;4.40;2.85;;;23.60;1.00;;;;;;5074590;28;20044;-68
2023/06/17 11:17:12;;;;;;;5.88;3.42;;;23.70;1.00;;;;;;5073324;28;20040;-69
2023/06/17 11:19:38;;;;;;;6.38;3.20;;;23.70;1.00;;;;;;5073114;28;20040;-70
2023/06/17 11:22:04;;;;;;;7.40;3.88;;;24.10;1.00;;;;;;5074595;28;20081;-68
2023/06/17 11:24:30;;;;;;;5.90;3.17;;;23.80;1.00;;;;;;5056547;28;20045;-69
2023/06/17 11:26:57;;;;;;;6.65;3.67;;;23.80;1.00;;;;;;5074632;28;20129;-70
2023/06/17 11:29:25;;;;;;;4.95;3.47;;;23.80;1.00;;;;;;5074464;28;20043;-72
2023/06/17 12:17:16;;;;;;;5.57;2.97;;;25.40;1.00;;;;;;5110457;27;20317;-65
2023/06/17 12:19:41;;;;;;;5.30;2.78;;;25.50;1.00;;;;;;5110861;28;20044;-64
2023/06/17 12:22:12;;;;;;;5.25;3.33;;;25.40;1.00;;;;;;5110819;28;20382;-64
2023/06/17 12:24:38;;;;;;;22.63;3.00;;;25.60;1.00;;;;;;5110737;28;20040;-63
2023/06/17 12:27:07;;;;;;;3.55;2.35;;;25.40;1.00;;;;;;5109242;28;20062;-64
2023/06/17 12:29:32;;;;;;;6.22;3.30;;;25.60;1.00;;;;;;5110569;28;20039;-64
2023/06/17 12:31:58;;;;;;;5.57;3.20;;;25.80;99.90;;;;;;5110545;28;20410;-64
2023/06/17 12:34:24;;;;;;;3.70;2.53;;;;;;;;;;5125712;28;20040;-64
2023/06/17 12:36:50;;;;;;;11.90;2.63;;;25.70;1.00;;;;;;5108694;28;20516;-63
2023/06/17 12:39:15;;;;;;;4.90;3.20;;;25.80;1.00;;;;;;5110260;28;20119;-63
2023/06/17 12:41:41;;;;;;;5.00;2.92;;;25.80;1.00;;;;;;5110232;28;20393;-63
2023/06/17 12:44:06;;;;;;;5.18;3.17;;;25.70;1.00;;;;;;5110091;28;20032;-63
2023/06/17 12:46:35;;;;;;;5.88;3.20;;;25.70;1.00;;;;;;5110130;28;20035;-70
2023/06/17 12:49:00;;;;;;;6.60;3.67;;;25.60;1.00;;;;;;5110305;28;20449;-64
2023/06/17 12:51:26;;;;;;;4.85;3.25;;;26.00;1.00;;;;;;5110296;28;20040;-63
2023/06/17 12:53:51;;;;;;;8.05;3.58;;;26.00;1.00;;;;;;5109887;28;20043;-64
2023/06/17 12:56:17;;;;;;;5.18;3.10;;;26.20;1.00;;;;;;5109979;28;20039;-64
2023/06/17 12:58:43;;;;;;;3.80;2.67;;;26.20;1.00;;;;;;5109718;28;20484;-64
2023/06/17 13:01:08;;;;;;;5.60;2.90;;;26.40;1.00;;;;;;5109714;28;20075;-63
2023/06/17 13:03:36;;;;;;;6.80;3.38;;;26.40;1.00;;;;;;5109985;28;20035;-64
2023/06/17 13:06:02;;;;;;;6.45;3.50;;;26.40;1.00;;;;;;5109750;28;20055;-68
2023/06/17 13:08:27;;;;;;;4.88;2.85;;;26.30;1.00;;;;;;5125771;28;20039;-66
2023/06/17 13:10:53;;;;;;;5.88;3.20;;;26.20;1.00;;;;;;5109600;28;20042;-66
2023/06/17 13:13:19;;;;;;;5.72;3.00;;;26.40;1.00;;;;;;5109799;28;20036;-66
2023/06/17 13:15:44;;;;;;;6.00;3.40;;;26.40;1.00;;;;;;5091128;28;20048;-66
2023/06/17 13:18:10;;;;;;;4.53;2.83;;;26.50;1.00;;;;;;5108169;28;20123;-67
2023/06/17 13:20:36;;;;;;;12.98;3.25;;;27.00;1.00;;;;;;5108065;28;20115;-66
2023/06/17 13:23:01;;;;;;;4.75;3.15;;;26.40;1.00;;;;;;5125848;28;20505;-70
2023/06/17 13:25:27;;;;;;;6.82;2.85;;;26.50;1.00;;;;;;5109595;28;20043;-70
2023/06/17 13:27:54;;;;;;;7.00;3.05;;;26.70;1.00;;;;;;5115180;28;20162;-70
2023/06/17 13:30:19;;;;;;;4.35;2.67;;;26.60;1.00;;;;;;5077551;28;20059;-70
2023/06/17 13:32:45;;;;;;;6.43;2.95;;;26.60;1.00;;;;;;5095872;28;20032;-70
2023/06/17 13:35:10;;;;;;;5.32;3.35;;;26.60;1.00;;;;;;5095716;28;20032;-70